createdAt,value
2023-05-23T00:00:15.656Z,28.55
2023-05-23T00:02:19.494Z,28.70
2023-05-23T00:04:27.053Z,24.58
2023-05-23T00:06:31.933Z,25.15
2023-05-23T00:08:35.457Z,24.98
2023-05-23T00:10:38.738Z,23.35
2023-05-23T00:12:42.657Z,23.45
2023-05-23T00:14:45.901Z,23.65
2023-05-23T00:16:49.759Z,23.10
2023-05-23T00:18:53.742Z,23.85
2023-05-23T00:20:57.580Z,23.83
2023-05-23T00:23:03.766Z,23.05
2023-05-23T00:25:08.064Z,26.48
2023-05-23T00:27:11.416Z,23.02
2023-05-23T00:29:16.742Z,27.88
2023-05-23T00:31:20.594Z,30.02
2023-05-23T00:33:24.028Z,30.98
2023-05-23T00:35:27.679Z,30.33
2023-05-23T00:37:32.384Z,30.20
2023-05-23T00:39:37.057Z,29.25
2023-05-23T00:41:40.715Z,31.08
2023-05-23T00:43:44.083Z,29.30
2023-05-23T00:45:47.390Z,29.80
2023-05-23T00:47:51.639Z,29.63
2023-05-23T00:49:55.368Z,29.90
2023-05-23T00:52:00.919Z,30.88
2023-05-23T00:54:04.960Z,28.33
2023-05-23T00:56:10.065Z,28.17
2023-05-23T00:58:15.245Z,27.38
2023-05-23T01:00:20.153Z,26.27
2023-05-23T01:02:23.909Z,27.48
2023-05-23T01:04:28.585Z,25.65
2023-05-23T01:06:33.738Z,27.70
2023-05-23T01:10:58.323Z,24.23
2023-05-23T01:13:11.247Z,24.42
2023-05-23T01:15:17.090Z,23.73
2023-05-23T01:17:24.490Z,24.70
2023-05-23T01:19:49.070Z,23.00
2023-05-23T01:21:55.261Z,23.00
2023-05-23T01:24:22.342Z,23.42
2023-05-23T01:26:35.172Z,21.48
2023-05-23T01:28:42.484Z,22.88
2023-05-23T01:30:46.714Z,22.88
2023-05-23T01:32:50.244Z,22.42
2023-05-23T01:34:54.618Z,23.50
2023-05-23T01:36:57.900Z,21.45
2023-05-23T01:39:01.135Z,21.40
2023-05-23T01:41:04.364Z,21.05
2023-05-23T01:43:07.608Z,22.40
2023-05-23T01:45:12.992Z,21.70
2023-05-23T01:47:16.217Z,22.60
2023-05-23T01:49:19.611Z,22.73
2023-05-23T01:51:23.546Z,21.83
2023-05-23T01:53:26.811Z,22.50
2023-05-23T01:55:31.255Z,22.65
2023-05-23T01:57:34.605Z,23.10
2023-05-23T01:59:38.629Z,23.08
2023-05-23T02:01:43.803Z,21.90
2023-05-23T02:03:47.251Z,22.92
2023-05-23T02:05:50.522Z,23.75
2023-05-23T02:07:53.801Z,22.58
2023-05-23T02:09:57.440Z,22.70
2023-05-23T02:12:01.006Z,23.13
2023-05-23T02:14:04.522Z,22.77
2023-05-23T02:16:08.147Z,22.27
2023-05-23T02:18:13.142Z,23.42
2023-05-23T02:20:18.990Z,21.65
2023-05-23T02:22:25.263Z,23.60
2023-05-23T02:24:28.609Z,22.15
2023-05-23T02:26:31.968Z,22.95
2023-05-23T02:28:35.313Z,22.33
2023-05-23T02:30:38.589Z,22.90
2023-05-23T02:32:42.174Z,22.00
2023-05-23T02:34:50.436Z,24.88
2023-05-23T02:36:53.882Z,22.42
2023-05-23T02:38:57.339Z,22.95
2023-05-23T02:41:01.069Z,21.90
2023-05-23T02:43:04.651Z,18.42
2023-05-23T02:45:09.303Z,20.30
2023-05-23T02:47:12.632Z,17.13
2023-05-23T02:49:16.093Z,22.33
2023-05-23T02:51:21.522Z,21.35
2023-05-23T02:53:24.929Z,21.05
2023-05-23T02:55:29.033Z,22.95
2023-05-23T02:57:32.572Z,20.55
2023-05-23T02:59:36.154Z,21.35
2023-05-23T03:01:39.873Z,19.27
2023-05-23T03:03:43.448Z,19.75
2023-05-23T03:05:47.188Z,19.60
2023-05-23T03:07:52.597Z,20.15
2023-05-23T03:09:56.271Z,18.63
2023-05-23T03:12:00.090Z,19.83
2023-05-23T03:14:03.723Z,18.73
2023-05-23T03:16:07.481Z,19.27
2023-05-23T03:18:11.459Z,18.55
2023-05-23T03:20:15.292Z,17.20
2023-05-23T03:22:19.310Z,16.85
2023-05-23T03:24:26.239Z,16.73
2023-05-23T03:26:29.606Z,17.92
2023-05-23T03:28:33.187Z,17.40
2023-05-23T03:30:36.531Z,17.95
2023-05-23T03:32:40.314Z,17.27
2023-05-23T03:34:43.638Z,17.10
2023-05-23T03:36:49.256Z,15.02
2023-05-23T03:38:52.684Z,15.50
2023-05-23T03:40:57.440Z,12.73
2023-05-23T03:43:04.900Z,12.30
2023-05-23T03:45:08.834Z,10.60
2023-05-23T03:47:12.830Z,10.45
2023-05-23T03:49:47.076Z,9.85
2023-05-23T03:51:51.054Z,10.07
2023-05-23T03:53:54.390Z,9.52
2023-05-23T03:55:59.131Z,10.38
2023-05-23T03:58:02.647Z,11.35
2023-05-23T04:00:06.790Z,11.02
2023-05-23T04:02:10.330Z,10.77
2023-05-23T04:04:13.776Z,12.57
2023-05-23T04:06:18.313Z,12.38
2023-05-23T04:08:22.495Z,13.68
2023-05-23T04:10:26.154Z,15.07
2023-05-23T04:12:31.719Z,15.52
2023-05-23T04:14:35.307Z,14.15
2023-05-23T04:16:41.798Z,13.82
2023-05-23T04:18:47.587Z,12.60
2023-05-23T04:20:51.185Z,12.55
2023-05-23T04:22:54.879Z,13.40
2023-05-23T04:24:58.432Z,13.85
2023-05-23T04:27:02.034Z,12.75
2023-05-23T04:29:07.565Z,12.75
2023-05-23T04:31:11.144Z,12.05
2023-05-23T04:33:14.646Z,12.07
2023-05-23T04:35:18.468Z,12.57
2023-05-23T04:37:26.421Z,12.00
2023-05-23T04:39:30.179Z,13.15
2023-05-23T04:41:33.902Z,13.93
2023-05-23T04:43:37.592Z,14.88
2023-05-23T04:45:44.291Z,14.52
2023-05-23T04:47:48.023Z,14.55
2023-05-23T04:49:53.998Z,14.52
2023-05-23T04:51:57.791Z,14.98
2023-05-23T04:54:01.601Z,12.55
2023-05-23T04:56:05.504Z,14.93
2023-05-23T04:58:10.036Z,16.90
2023-05-23T05:00:15.776Z,16.55
2023-05-23T05:02:20.954Z,16.25
2023-05-23T05:04:24.774Z,17.05
2023-05-23T05:06:29.033Z,18.85
2023-05-23T05:08:32.749Z,17.45
2023-05-23T05:10:36.316Z,17.85
2023-05-23T05:12:40.145Z,17.15
2023-05-23T05:14:44.022Z,16.95
2023-05-23T05:16:48.900Z,16.80
2023-05-23T05:18:54.160Z,17.08
2023-05-23T05:20:58.626Z,17.20
2023-05-23T05:23:02.282Z,16.40
2023-05-23T05:25:07.481Z,16.08
2023-05-23T05:27:12.102Z,15.27
2023-05-23T05:29:15.992Z,14.75
2023-05-23T05:31:19.902Z,12.88
2023-05-23T05:33:24.070Z,12.43
2023-05-23T05:35:29.756Z,12.30
2023-05-23T05:37:33.639Z,11.40
2023-05-23T05:39:37.221Z,11.75
2023-05-23T05:41:41.262Z,12.40
2023-05-23T05:43:45.148Z,12.20
2023-05-23T05:45:48.815Z,10.63
2023-05-23T05:47:53.424Z,12.10
2023-05-23T05:49:57.038Z,9.88
2023-05-23T05:52:02.246Z,7.20
2023-05-23T05:54:05.835Z,5.10
2023-05-23T05:56:10.383Z,5.75
2023-05-23T05:58:14.245Z,6.22
2023-05-23T06:00:19.410Z,6.57
2023-05-23T06:02:22.986Z,5.80
2023-05-23T06:04:26.571Z,6.32
2023-05-23T06:06:32.702Z,6.15
2023-05-23T06:08:37.908Z,7.25
2023-05-23T06:10:41.783Z,7.30
2023-05-23T06:12:46.118Z,6.38
2023-05-23T06:14:49.597Z,6.20
2023-05-23T06:16:53.589Z,6.13
2023-05-23T06:18:57.232Z,6.45
2023-05-23T06:21:01.106Z,6.13
2023-05-23T06:23:05.776Z,5.68
2023-05-23T06:25:12.201Z,5.15
2023-05-23T06:27:15.829Z,5.28
2023-05-23T06:29:19.342Z,4.72
2023-05-23T06:31:23.055Z,5.32
2023-05-23T06:33:26.851Z,5.68
2023-05-23T06:35:30.600Z,5.43
2023-05-23T06:59:33.895Z,5.93
2023-05-23T07:01:37.649Z,5.95
2023-05-23T07:03:43.495Z,5.07
2023-05-23T07:05:47.220Z,3.97
2023-05-23T07:07:50.795Z,4.22
2023-05-23T07:09:54.450Z,4.75
2023-05-23T07:12:01.801Z,5.40
2023-05-23T07:14:06.240Z,4.90
2023-05-23T07:16:11.350Z,5.88
2023-05-23T07:18:15.057Z,5.90
2023-05-23T07:20:18.904Z,6.25
2023-05-23T07:22:22.902Z,7.72
2023-05-23T07:24:26.786Z,7.32
2023-05-23T07:26:30.360Z,6.65
2023-05-23T07:28:34.187Z,6.68
2023-05-23T07:30:38.149Z,6.07
2023-05-23T07:32:43.230Z,6.53
2023-05-23T07:34:47.392Z,6.22
2023-05-23T07:36:51.342Z,6.57
2023-05-23T07:38:55.008Z,6.43
2023-05-23T07:41:07.390Z,6.55
2023-05-23T07:43:15.549Z,5.97
2023-05-23T07:45:22.361Z,5.65
2023-05-23T07:47:27.034Z,5.85
2023-05-23T07:49:32.441Z,5.63
2023-05-23T07:51:36.406Z,6.50
2023-05-23T07:53:45.689Z,5.50
2023-05-23T07:55:49.646Z,4.40
2023-05-23T07:57:56.734Z,4.80
2023-05-23T08:00:01.547Z,4.32
2023-05-23T08:02:05.779Z,3.97
2023-05-23T08:04:09.839Z,4.03
2023-05-23T08:06:17.071Z,4.55
2023-05-23T08:08:21.512Z,4.30
2023-05-23T08:10:28.492Z,4.35
2023-05-23T08:12:34.597Z,4.63
2023-05-23T08:14:50.788Z,4.88
2023-05-23T08:16:56.681Z,4.35
2023-05-23T08:19:00.955Z,4.10
2023-05-23T08:21:05.192Z,4.50
2023-05-23T08:23:12.465Z,4.22
2023-05-23T08:25:17.151Z,4.47
2023-05-23T08:27:21.620Z,3.97
2023-05-23T08:29:26.675Z,3.75
2023-05-23T08:31:31.059Z,4.20
2023-05-23T08:33:35.209Z,4.05
2023-05-23T08:35:39.491Z,3.78
2023-05-23T08:37:46.420Z,3.90
2023-05-23T08:39:52.663Z,3.33
2023-05-23T08:41:56.825Z,2.90
2023-05-23T08:44:00.799Z,3.50
2023-05-23T08:46:04.891Z,3.05
2023-05-23T08:48:09.779Z,3.10
2023-05-23T08:50:14.555Z,3.40
2023-05-23T08:52:18.302Z,3.20
2023-05-23T08:54:22.527Z,2.80
2023-05-23T08:56:28.640Z,2.80
2023-05-23T08:58:34.620Z,2.40
2023-05-23T09:00:38.701Z,2.70
2023-05-23T09:02:48.889Z,3.30
2023-05-23T09:05:29.418Z,2.70
2023-05-23T09:07:32.897Z,3.00
2023-05-23T09:09:36.396Z,2.95
2023-05-23T09:11:41.157Z,3.08
2023-05-23T09:13:45.136Z,2.72
2023-05-23T09:16:00.277Z,2.85
2023-05-23T09:18:04.281Z,3.08
2023-05-23T09:20:13.392Z,2.95
2023-05-23T09:22:17.178Z,3.00
2023-05-23T09:24:21.408Z,2.97
2023-05-23T09:26:25.448Z,2.97
2023-05-23T09:28:30.946Z,3.35
2023-05-23T09:30:35.923Z,3.10
2023-05-23T09:32:40.159Z,3.30
2023-05-23T09:34:44.359Z,3.25
2023-05-23T09:36:49.260Z,2.90
2023-05-23T09:38:53.894Z,2.80
2023-05-23T09:40:58.375Z,2.60
2023-05-23T09:43:04.450Z,3.50
2023-05-23T09:45:10.876Z,3.17
2023-05-23T09:47:14.844Z,3.10
2023-05-23T09:49:19.479Z,2.88
2023-05-23T09:51:23.638Z,3.22
2023-05-23T09:53:27.127Z,3.33
2023-05-23T09:55:31.058Z,2.90
2023-05-23T09:57:35.641Z,3.40
2023-05-23T09:59:42.353Z,3.00
2023-05-23T10:01:47.514Z,2.47
2023-05-23T10:03:52.108Z,2.60
2023-05-23T10:05:58.669Z,3.28
2023-05-23T10:08:05.158Z,3.00
2023-05-23T10:10:09.941Z,2.80
2023-05-23T10:12:48.273Z,3.40
2023-05-23T10:14:53.718Z,3.22
2023-05-23T10:17:03.480Z,3.00
2023-05-23T10:19:09.345Z,3.17
2023-05-23T10:21:14.504Z,3.30
2023-05-23T10:23:18.327Z,3.28
2023-05-23T10:25:22.501Z,3.38
2023-05-23T10:27:26.444Z,3.30
2023-05-23T10:29:30.372Z,3.38
2023-05-23T10:31:34.306Z,3.67
2023-05-23T10:33:43.243Z,3.60
2023-05-23T10:35:52.179Z,3.38
2023-05-23T10:37:58.730Z,3.22
2023-05-23T10:40:06.551Z,3.40
2023-05-23T10:42:17.386Z,3.30
2023-05-23T10:44:25.426Z,3.50
2023-05-23T10:46:53.183Z,4.43
2023-05-23T10:48:58.771Z,4.00
2023-05-23T10:51:06.575Z,4.07
2023-05-23T10:53:11.826Z,4.00
2023-05-23T10:55:16.312Z,4.28
2023-05-23T10:57:21.635Z,4.03
2023-05-23T10:59:25.594Z,3.03
2023-05-23T11:01:29.455Z,3.38
2023-05-23T11:03:37.363Z,3.00
2023-05-23T11:05:49.106Z,2.90
2023-05-23T11:08:14.082Z,2.78
2023-05-23T11:10:20.489Z,3.03
2023-05-23T11:12:42.723Z,3.08
2023-05-23T11:14:56.075Z,3.30
2023-05-23T11:17:00.173Z,2.80
2023-05-23T11:19:34.306Z,3.28
2023-05-23T11:21:39.831Z,3.15
2023-05-23T11:23:43.668Z,3.03
2023-05-23T11:25:50.419Z,3.25
2023-05-23T11:27:54.579Z,3.42
2023-05-23T11:30:02.496Z,2.95
2023-05-23T11:32:16.807Z,2.45
2023-05-23T11:34:22.021Z,2.42
2023-05-23T11:36:25.779Z,3.05
2023-05-23T11:38:31.885Z,4.38
2023-05-23T11:40:36.275Z,4.07
2023-05-23T11:42:44.764Z,3.95
2023-05-23T11:44:51.800Z,3.30
2023-05-23T11:47:04.381Z,3.35
2023-05-23T11:49:14.829Z,3.20
2023-05-23T11:51:20.162Z,3.10
2023-05-23T11:53:25.894Z,3.60
2023-05-23T11:55:31.263Z,3.13
2023-05-23T11:57:35.546Z,2.28
2023-05-23T11:59:39.757Z,1.88
2023-05-23T12:01:44.041Z,1.60
2023-05-23T12:03:48.466Z,1.42
2023-05-23T12:05:52.756Z,1.58
2023-05-23T12:07:56.804Z,1.60
2023-05-23T12:10:01.430Z,1.77
2023-05-23T12:12:07.804Z,1.40
2023-05-23T12:14:11.812Z,1.65
2023-05-23T12:16:16.065Z,1.55
2023-05-23T12:18:21.021Z,1.40
2023-05-23T12:20:27.621Z,1.42
2023-05-23T12:22:31.656Z,1.60
2023-05-23T12:24:35.776Z,1.50
2023-05-23T12:26:48.825Z,2.13
2023-05-23T12:28:54.418Z,2.30
2023-05-23T12:30:58.303Z,2.75
2023-05-23T12:33:02.411Z,2.17
2023-05-23T12:35:07.029Z,2.10
2023-05-23T12:37:19.476Z,2.60
2023-05-23T12:39:26.596Z,2.28
2023-05-23T12:41:30.861Z,2.30
2023-05-23T12:43:34.559Z,2.20
2023-05-23T12:45:40.089Z,2.22
2023-05-23T12:47:44.344Z,2.60
2023-05-23T12:49:48.314Z,2.95
2023-05-23T12:51:52.434Z,2.63
2023-05-23T12:53:56.839Z,3.28
2023-05-23T12:56:00.993Z,2.53
2023-05-23T12:58:04.802Z,3.13
2023-05-23T13:00:10.067Z,2.95
2023-05-23T13:02:15.275Z,3.33
2023-05-23T13:04:20.003Z,3.50
2023-05-23T13:06:24.183Z,3.45
2023-05-23T13:08:28.300Z,3.70
2023-05-23T13:10:32.350Z,3.53
2023-05-23T13:12:36.497Z,3.25
2023-05-23T13:14:40.285Z,3.22
2023-05-23T13:16:45.460Z,2.85
2023-05-23T13:18:50.973Z,2.83
2023-05-23T13:20:55.017Z,3.42
2023-05-23T13:22:59.036Z,2.92
2023-05-23T13:25:02.724Z,3.00
2023-05-23T13:27:07.381Z,2.80
2023-05-23T13:29:11.528Z,2.80
2023-05-23T13:31:15.476Z,3.00
2023-05-23T13:33:19.160Z,3.70
2023-05-23T13:35:27.099Z,3.20
2023-05-23T13:37:31.221Z,3.97
2023-05-23T13:39:35.060Z,3.90
2023-05-23T13:41:38.976Z,3.92
2023-05-23T13:43:42.901Z,3.78
2023-05-23T13:45:47.554Z,3.80
2023-05-23T13:47:51.559Z,3.97
2023-05-23T13:49:55.874Z,4.10
2023-05-23T13:52:01.154Z,4.22
2023-05-23T13:54:05.419Z,3.97
2023-05-23T13:56:18.816Z,4.40
2023-05-23T13:58:30.160Z,3.95
2023-05-23T14:00:43.074Z,3.95
2023-05-23T14:02:53.098Z,4.30
2023-05-23T14:04:57.684Z,3.90
2023-05-23T14:07:04.944Z,4.00
2023-05-23T14:09:09.335Z,4.68
2023-05-23T14:11:21.045Z,4.82
2023-05-23T14:13:25.405Z,4.30
2023-05-23T14:15:31.790Z,5.15
2023-05-23T14:17:37.609Z,5.60
2023-05-23T14:19:42.179Z,5.13
2023-05-23T14:21:46.647Z,5.35
2023-05-23T14:23:51.818Z,6.13
2023-05-23T14:25:55.665Z,5.57
2023-05-23T14:27:59.616Z,5.78
2023-05-23T14:30:03.861Z,5.32
2023-05-23T14:32:09.126Z,6.25
2023-05-23T14:34:13.949Z,6.68
2023-05-23T14:36:18.167Z,6.40
2023-05-23T14:38:22.090Z,6.88
2023-05-23T14:40:27.597Z,6.18
2023-05-23T14:42:31.429Z,7.38
2023-05-23T14:44:35.118Z,7.72
2023-05-23T14:46:39.004Z,7.78
2023-05-23T14:48:43.083Z,8.02
2023-05-23T14:50:46.960Z,6.90
2023-05-23T14:52:51.026Z,6.43
2023-05-23T14:54:55.207Z,5.80
2023-05-23T14:57:00.851Z,6.32
2023-05-23T14:59:04.588Z,6.25
2023-05-23T15:01:08.795Z,4.85
2023-05-23T15:03:14.880Z,5.13
2023-05-23T15:05:19.412Z,4.93
2023-05-23T15:07:26.288Z,5.05
2023-05-23T15:09:30.071Z,4.70
2023-05-23T15:11:35.307Z,5.22
2023-05-23T15:13:40.616Z,5.00
2023-05-23T15:15:44.410Z,4.70
2023-05-23T15:17:48.395Z,4.78
2023-05-23T15:19:57.144Z,4.90
2023-05-23T15:22:01.185Z,4.60
2023-05-23T15:24:05.114Z,4.88
2023-05-23T15:26:09.275Z,4.80
2023-05-23T15:28:14.405Z,5.15
2023-05-23T15:30:20.296Z,4.72
2023-05-23T15:32:24.344Z,4.57
2023-05-23T15:34:28.258Z,4.40
2023-05-23T15:36:32.955Z,4.25
2023-05-23T15:38:37.272Z,4.35
2023-05-23T15:40:41.522Z,4.70
2023-05-23T15:42:45.767Z,4.40
2023-05-23T15:44:49.840Z,4.10
2023-05-23T15:46:55.081Z,4.03
2023-05-23T15:49:05.010Z,3.35
2023-05-23T15:51:14.635Z,4.13
2023-05-23T15:53:19.161Z,3.72
2023-05-23T15:55:23.017Z,3.45
2023-05-23T15:57:26.720Z,3.33
2023-05-23T15:59:31.722Z,3.55
2023-05-23T16:01:35.635Z,3.63
2023-05-23T16:03:41.091Z,3.80
2023-05-23T16:05:45.477Z,3.53
2023-05-23T16:07:49.212Z,3.63
2023-05-23T16:09:53.414Z,4.03
2023-05-23T16:11:58.014Z,4.18
2023-05-23T16:14:02.114Z,3.92
2023-05-23T16:16:06.251Z,4.03
2023-05-23T16:18:10.095Z,3.72
2023-05-23T16:20:16.054Z,3.65
2023-05-23T16:22:20.320Z,3.25
2023-05-23T16:24:24.553Z,3.78
2023-05-23T16:26:28.369Z,3.40
2023-05-23T16:28:32.330Z,3.30
2023-05-23T16:30:36.657Z,3.47
2023-05-23T16:32:40.889Z,3.20
2023-05-23T16:34:51.019Z,3.35
2023-05-23T16:36:59.531Z,3.25
2023-05-23T16:39:03.256Z,3.28
2023-05-23T16:41:07.238Z,2.95
2023-05-23T16:43:11.140Z,2.80
2023-05-23T16:45:15.421Z,3.65
2023-05-23T16:47:19.304Z,3.30
2023-05-23T16:49:23.084Z,3.28
2023-05-23T16:51:26.923Z,2.90
2023-05-23T16:53:32.000Z,3.47
2023-05-23T16:55:35.731Z,3.25
2023-05-23T16:57:40.282Z,3.17
2023-05-23T16:59:44.465Z,3.22
2023-05-23T17:01:48.477Z,3.95
2023-05-23T17:03:52.880Z,3.78
2023-05-23T17:05:57.243Z,3.47
2023-05-23T17:08:01.315Z,3.83
2023-05-23T17:10:07.659Z,4.00
2023-05-23T17:12:12.582Z,3.90
2023-05-23T17:14:16.786Z,4.03
2023-05-23T17:16:21.219Z,3.85
2023-05-23T17:18:25.007Z,3.80
2023-05-23T17:20:29.265Z,3.47
2023-05-23T17:22:33.195Z,3.85
2023-05-23T17:24:38.080Z,3.80
2023-05-23T17:26:43.375Z,3.78
2023-05-23T17:28:47.156Z,3.70
2023-05-23T17:30:53.313Z,4.03
2023-05-23T17:32:57.370Z,4.15
2023-05-23T17:35:01.630Z,3.92
2023-05-23T17:37:05.877Z,4.25
2023-05-23T17:39:10.068Z,4.25
2023-05-23T17:41:14.995Z,4.13
2023-05-23T17:43:20.558Z,3.60
2023-05-23T17:45:24.445Z,3.90
2023-05-23T17:47:28.433Z,4.00
2023-05-23T17:49:32.914Z,3.95
2023-05-23T17:51:36.710Z,4.05
2023-05-23T17:53:41.914Z,4.28
2023-05-23T17:55:45.696Z,4.10
2023-05-23T17:57:49.734Z,3.80
2023-05-23T17:59:55.741Z,3.72
2023-05-23T18:02:00.361Z,3.65
2023-05-23T18:04:04.597Z,3.97
2023-05-23T18:06:10.183Z,3.67
2023-05-23T18:08:14.079Z,4.00
2023-05-23T18:10:18.200Z,3.80
2023-05-23T18:12:22.204Z,3.80
2023-05-23T18:14:26.178Z,3.80
2023-05-23T18:16:32.538Z,3.60
2023-05-23T18:18:36.579Z,3.78
2023-05-23T18:20:41.333Z,3.65
2023-05-23T18:22:46.908Z,3.97
2023-05-23T18:24:51.086Z,4.22
2023-05-23T18:26:55.230Z,4.10
2023-05-23T18:29:01.367Z,3.70
2023-05-23T18:31:05.579Z,4.22
2023-05-23T18:33:11.393Z,4.20
2023-05-23T18:35:15.600Z,4.38
2023-05-23T18:37:19.998Z,4.20
2023-05-23T18:39:24.086Z,4.30
2023-05-23T18:41:28.379Z,4.03
2023-05-23T18:43:32.325Z,4.38
2023-05-23T18:45:37.205Z,3.92
2023-05-23T18:47:42.323Z,3.92
2023-05-23T18:49:49.451Z,3.55
2023-05-23T18:51:54.746Z,3.75
2023-05-23T18:53:58.788Z,3.83
2023-05-23T18:56:03.241Z,3.90
2023-05-23T18:58:07.728Z,3.97
2023-05-23T19:00:12.774Z,3.45
2023-05-23T19:02:16.725Z,4.45
2023-05-23T19:04:20.380Z,3.40
2023-05-23T19:06:25.662Z,3.55
2023-05-23T19:08:30.003Z,3.63
2023-05-23T19:10:33.940Z,4.20
2023-05-23T19:12:39.649Z,3.88
2023-05-23T19:14:44.073Z,4.05
2023-05-23T19:16:48.489Z,3.85
2023-05-23T19:18:53.032Z,3.97
2023-05-23T19:20:56.879Z,3.50
2023-05-23T19:23:02.293Z,3.65
2023-05-23T19:25:07.677Z,3.97
2023-05-23T19:27:11.638Z,4.03
2023-05-23T19:29:23.423Z,3.95
2023-05-23T19:31:35.151Z,4.45
2023-05-23T19:33:45.921Z,4.05
2023-05-23T19:35:59.601Z,4.15
2023-05-23T19:38:11.311Z,4.15
2023-05-23T19:40:17.334Z,3.55
2023-05-23T19:42:27.118Z,3.90
2023-05-23T19:44:32.247Z,3.95
2023-05-23T19:46:37.145Z,4.00
2023-05-23T19:48:41.821Z,3.72
2023-05-23T19:50:48.171Z,3.92
2023-05-23T19:52:53.373Z,3.65
2023-05-23T19:55:03.374Z,4.00
2023-05-23T19:57:10.026Z,4.10
2023-05-23T19:59:15.347Z,4.00
2023-05-23T20:01:19.308Z,4.10
2023-05-23T20:03:23.407Z,3.60
2023-05-23T20:05:28.213Z,3.95
2023-05-23T20:07:32.819Z,4.25
2023-05-23T20:09:37.292Z,3.90
2023-05-23T20:11:43.882Z,3.97
2023-05-23T20:13:48.144Z,4.10
2023-05-23T20:15:52.321Z,3.80
2023-05-23T20:17:56.877Z,3.88
2023-05-23T20:20:01.045Z,4.70
2023-05-23T20:22:07.077Z,3.75
2023-05-23T20:24:11.924Z,3.85
2023-05-23T20:26:15.949Z,4.10
2023-05-23T20:28:21.205Z,3.85
2023-05-23T20:30:25.172Z,4.05
2023-05-23T20:32:28.735Z,4.15
2023-05-23T20:34:32.763Z,4.25
2023-05-23T20:36:37.480Z,4.28
2023-05-23T20:38:41.979Z,3.88
2023-05-23T20:40:50.282Z,4.90
2023-05-23T20:42:56.625Z,4.60
2023-05-23T20:45:01.487Z,4.40
2023-05-23T20:47:05.808Z,3.70
2023-05-23T20:49:09.697Z,3.97
2023-05-23T20:51:13.786Z,4.18
2023-05-23T20:53:17.663Z,3.63
2023-05-23T20:55:22.504Z,4.50
2023-05-23T20:57:27.581Z,4.10
2023-05-23T20:59:31.657Z,4.40
2023-05-23T21:01:37.121Z,4.57
2023-05-23T21:03:40.639Z,3.67
2023-05-23T21:05:44.498Z,4.13
2023-05-23T21:07:49.072Z,4.50
2023-05-23T21:09:53.506Z,4.25
2023-05-23T21:11:58.566Z,4.25
2023-05-23T21:14:03.212Z,4.13
2023-05-23T21:16:08.980Z,4.28
2023-05-23T21:18:14.131Z,4.18
2023-05-23T21:20:20.028Z,4.30
2023-05-23T21:22:23.679Z,3.85
2023-05-23T21:24:27.386Z,4.07
2023-05-23T21:26:31.170Z,3.70
2023-05-23T21:28:35.127Z,4.40
2023-05-23T21:30:39.860Z,4.43
2023-05-23T21:32:45.200Z,4.47
2023-05-23T21:34:50.725Z,3.65
2023-05-23T21:36:54.918Z,4.32
2023-05-23T21:39:02.903Z,4.55
2023-05-23T21:41:10.776Z,3.95
2023-05-23T21:43:14.916Z,4.43
2023-05-23T21:45:19.436Z,4.38
2023-05-23T21:47:25.055Z,3.90
2023-05-23T21:49:32.780Z,4.35
2023-05-23T21:51:38.298Z,4.07
2023-05-23T21:53:43.097Z,3.60
2023-05-23T21:55:47.756Z,4.50
2023-05-23T22:00:03.314Z,4.05
2023-05-23T22:02:07.616Z,4.00
2023-05-23T22:04:12.248Z,4.70
2023-05-23T22:06:17.668Z,3.85
2023-05-23T22:08:22.883Z,4.00
2023-05-23T22:10:26.895Z,3.75
2023-05-23T22:12:31.060Z,4.00
2023-05-23T22:14:35.515Z,4.32
2023-05-23T22:16:41.087Z,3.60
2023-05-23T22:18:51.916Z,3.70
2023-05-23T22:21:39.212Z,4.82
2023-05-23T22:23:43.994Z,4.32
2023-05-23T22:25:48.279Z,3.95
2023-05-23T22:27:52.274Z,3.80
2023-05-23T22:29:56.267Z,4.45
2023-05-23T22:32:00.603Z,4.18
2023-05-23T22:34:04.895Z,4.60
2023-05-23T22:36:10.198Z,4.15
2023-05-23T22:38:14.318Z,3.83
2023-05-23T22:40:20.242Z,4.30
2023-05-23T22:42:24.382Z,4.50
2023-05-23T22:44:28.303Z,3.80
2023-05-23T22:46:32.177Z,4.47
2023-05-23T22:48:36.492Z,4.72
2023-05-23T22:50:54.296Z,4.25
2023-05-23T22:52:58.804Z,4.53
2023-05-23T22:55:03.050Z,4.80
2023-05-23T22:57:08.833Z,4.40
2023-05-23T22:59:13.013Z,4.60
2023-05-23T23:01:16.894Z,4.00
2023-05-23T23:09:55.347Z,3.72
2023-05-23T23:11:59.185Z,4.50
2023-05-23T23:14:05.190Z,3.72
2023-05-23T23:16:11.388Z,4.10
2023-05-23T23:18:15.385Z,4.50
2023-05-23T23:20:19.993Z,4.20
2023-05-23T23:22:24.578Z,4.05
2023-05-23T23:24:29.871Z,4.50
2023-05-23T23:26:33.875Z,3.67
